Flight Track Log - Related Links

Times and Time Zones

All times are in EDT time to prevent confusion due to time zone crossing. See the N724HS flight status page for this flight to view local times or setup timezone preferences in your user account.

Time Position Orientation Groundspeed Altitude Reporting Facility
EDT Latitude Longitude Course Direction KTS MPH feet Rate Location/Type
Wed 08:24:55 AM 26.0800 -80.1336 53° Northeast 139 160 600  Level Miami Center
Wed 08:26:14 AM 26.1150 -80.0811 53° Northeast 178 205 2,300 1,543 Climbing Miami Center
Wed 08:27:15 AM 26.1519 -80.0881 350° North 168 193 4,200 1,784 Climbing Miami Center
Wed 08:27:28 AM 26.1594 -80.1050 296° West 179 206 4,500 750 Climbing Miami Center
Wed 08:28:11 AM 26.1756 -80.1456 294° West 212 244 4,900 655 Climbing Miami Center
Wed 08:29:18 AM 26.2100 -80.1917 310° West 217 250 5,700 1,172 Climbing Miami Center
Wed 08:30:19 AM 26.2656 -80.2219 334° Northwest 192 221 7,400 1,463 Climbing Miami Center
Wed 08:31:21 AM 26.3136 -80.2519 331° Northwest 183 211 8,700 1,220 Climbing Miami Center
Wed 08:32:22 AM 26.3592 -80.2806 331° Northwest 187 215 9,900 1,073 Climbing Miami Center
Wed 08:33:24 AM 26.4044 -80.3086 331° Northwest 187 215 10,900 1,016 Climbing Miami Center
Wed 08:34:26 AM 26.4544 -80.3406 330° Northwest 190 219 12,000 1,073 Climbing Miami Center
Wed 08:35:27 AM 26.5014 -80.3703 330° Northwest 191 220 13,100 927 Climbing Miami Center
Wed 08:36:29 AM 26.5522 -80.4022 331° Northwest 204 235 13,900 439 Climbing Miami Center
Wed 08:37:30 AM 26.6153 -80.4361 334° Northwest 239 275 14,000 49 Climbing Miami Center
Wed 08:38:32 AM 26.6797 -80.4683 336° Northwest 251 289 14,000  Level Miami Center
Wed 08:39:33 AM 26.7439 -80.5017 335° Northwest 254 292 14,000  Level Miami Center
Wed 08:40:35 AM 26.8117 -80.5344 337° Northwest 257 296 14,000  Level Miami Center
Wed 08:41:37 AM 26.8800 -80.5694 335° Northwest 257 296 14,000  Level Miami Center
Wed 08:42:38 AM 26.9486 -80.6042 336° Northwest 254 292 14,000  Level Miami Center
Wed 08:43:40 AM 27.0169 -80.6386 336° Northwest 256 295 14,000 -244 Level Miami Center
Wed 08:44:41 AM 27.0811 -80.6711 336° Northwest 259 298 13,500 -488 Descending Miami Center
Wed 08:45:43 AM 27.1547 -80.7089 335° Northwest 276 318 13,000 -242 Descending Miami Center
Wed 08:46:45 AM 27.2244 -80.7444 336° Northwest 267 307 13,000  Level Miami Center
Wed 08:47:46 AM 27.2931 -80.7794 336° Northwest 263 303 13,000  Level Miami Center
Wed 08:48:48 AM 27.3567 -80.8119 336° Northwest 260 299 13,000  Level Miami Center
Wed 08:49:49 AM 27.4256 -80.8469 336° Northwest 259 298 13,000  Level Miami Center
Wed 08:50:51 AM 27.4950 -80.8836 335° Northwest 260 299 13,000 -97 Level Miami Center
Wed 08:51:53 AM 27.5606 -80.9158 336° Northwest 261 300 12,800 -341 Descending Miami Center
Wed 08:52:54 AM 27.6328 -80.9528 336° Northwest 268 308 12,300 -488 Descending Miami Center
Wed 08:53:56 AM 27.7050 -80.9897 336° Northwest 270 311 11,800 -440 Descending Miami Center
Wed 08:55:24 AM 27.8050 -81.0414 335° Northwest 271 312 11,200 -443 Descending Miami Center
Wed 08:56:25 AM 27.8767 -81.0781 336° Northwest 271 312 10,700 -488 Descending Miami Center
Wed 08:57:27 AM 27.9381 -81.1100 335° Northwest 271 312 10,200 -341 Descending Miami Center
Wed 08:58:28 AM 28.0100 -81.1353 343° North 270 311 10,000 -98 Descending Miami Center
Wed 08:59:30 AM 28.0797 -81.1589 343° North 264 304 10,000 -194 Level Miami Center
Wed 09:00:01 AM 28.1333 -81.1667 353° North 271 312 9,700 -866 Descending Orlando TRACON
Wed 09:01:07 AM 28.2000 -81.1167 33° Northeast 277 319 8,600 -1,134 Descending Orlando TRACON
Wed 09:02:08 AM 28.2667 -81.0667 33° Northeast 271 312 7,300 -1,340 Descending Orlando TRACON
Wed 09:02:50 AM 28.3000 -81.0333 41° Northeast 265 305 6,300 -1,471 Descending Orlando TRACON
Wed 09:03:50 AM 28.3667 -81.0000 24° Northeast 247 284 4,800 -1,417 Descending Orlando TRACON
Wed 09:04:57 AM 28.4333 -81.0000 360° North 230 265 3,300 -850 Descending Orlando TRACON
Wed 09:05:57 AM 28.4833 -81.0333 330° Northwest 192 221 3,000 -800 Descending Orlando TRACON
Wed 09:06:57 AM 28.5167 -81.0833 307° West 175 201 1,700 -789 Descending Orlando TRACON
Wed 09:07:51 AM 28.5333 -81.1333 291° West 183 211 1,500 -91 Descending Orlando TRACON
Wed 09:09:09 AM 28.5667 -81.1833 307° West 174 200 1,500 45 Level Orlando TRACON
Wed 09:10:03 AM 28.5833 -81.2333 291° West 120 138 1,600 -104 Climbing Orlando TRACON
Wed 09:11:04 AM 28.5667 -81.2500 221° Southwest 106 122 1,300 -446 Descending Orlando TRACON
Wed 09:12:04 AM 28.5667 -81.2833 270° West 114 131 700 -600 Descending Orlando TRACON
Wed 09:14:00 AM 28.5333 -81.3167 213° Southwest  Level FlightAware Approximate
Wed 09:21:00 AM 28.5455 -81.3329 213° Southwest  Level Estimated
Wed 09:22:00 AM 28.5455 -81.3329 130° Southeast  Level Estimated

Login

Don't have an account? Register now (free) for customized features, flight alerts, and more!